Dades meteomassalio
Diari Summary for Noviembre 30, 2017 Units:  English    Metric   Both
« Previous Day
Next Day »
Diari Semanal Mensual Anual Personalitzat
  Maxima: Minima: Mijana:
Temperatura: TemperatureC °F -1.7 °F 4.8 °F
Rosada: DewpointC °F -5.2 °F -1 °F
Humitat: Humidity % 48 % 67 %
Velocitat del vent: WindSpeedKMH mph 0.0 mph 21.8 mph
Racha vent: WindSpeedGustKMH mph - -
Vent:- - WNW
Pressio: PressurehPa in 1013.8 in -
Pluja: 0.0 in    
Historical Graphs
 
 
Tabular Data for Noviembre 30, 2017
Time Temperature Dew Point Pressure Wind Wind Speed Wind Gust Humidity Rainfall Rate (Hourly) solar Conditions
TemperatureC °F DewpointC °F PressurehPa in Calm     Humidity % HourlyPrecipMM in SolarRadiationWatts/m^2 W/m2 Conditions
00:02 5.0 °F 0.4 °F 1013.8 in NW 27.8 mph 27.8 mph 72 % 0.0 in 0.0 W/m2 CLR
00:07 4.4 °F -0.2 °F 1014.1 in WNW 29.6 mph 29.6 mph 72 % 0.0 in 0.0 W/m2 CLR
00:12 5.0 °F 0.6 °F 1014.1 in NW 31.5 mph 31.5 mph 73 % 0.0 in 0.0 W/m2 CLR
00:17 5.0 °F 0.6 °F 1014.1 in NW 25.9 mph 25.9 mph 73 % 0.0 in 0.0 W/m2 CLR
00:22 4.4 °F 0.0 °F 1014.1 in NNW 22.2 mph 22.2 mph 73 % 0.0 in 0.0 W/m2 CLR
00:27 4.4 °F 0.0 °F 1014.1 in NW 33.3 mph 33.3 mph 73 % 0.0 in 0.0 W/m2 CLR
00:32 4.4 °F 0.0 °F 1014.1 in NNW 25.9 mph 25.9 mph 73 % 0.0 in 0.0 W/m2 CLR
00:37 4.4 °F 0.2 °F 1014.1 in NNW 31.5 mph 31.5 mph 74 % 0.0 in 0.0 W/m2 CLR
00:42 4.4 °F 0.2 °F 1014.1 in WNW 25.9 mph 25.9 mph 74 % 0.0 in 0.0 W/m2 CLR
00:47 4.4 °F 0.2 °F 1014.4 in NW 22.2 mph 22.2 mph 74 % 0.0 in 0.0 W/m2 CLR
00:52 4.4 °F 0.2 °F 1014.4 in NNW 24.1 mph 24.1 mph 74 % 0.0 in 0.0 W/m2 CLR
00:57 4.4 °F 0.2 °F 1014.4 in NNW 18.5 mph 18.5 mph 74 % 0.0 in 0.0 W/m2 CLR
01:02 4.4 °F 0.2 °F 1014.4 in WNW 18.5 mph 18.5 mph 74 % 0.0 in 0.0 W/m2 CLR
01:07 4.4 °F 0.2 °F 1014.8 in NW 18.5 mph 18.5 mph 74 % 0.0 in 0.0 W/m2 CLR
01:12 4.4 °F 0.2 °F 1014.8 in NW 18.5 mph 18.5 mph 74 % 0.0 in 0.0 W/m2 CLR
01:17 4.4 °F 0.2 °F 1014.8 in NW 20.4 mph 20.4 mph 74 % 0.0 in 0.0 W/m2 CLR
01:22 3.9 °F -0.3 °F 1014.8 in NW 20.9 mph 20.9 mph 74 % 0.0 in 0.0 W/m2 CLR
01:27 3.9 °F -0.3 °F 1014.8 in WNW 20.4 mph 20.4 mph 74 % 0.0 in 0.0 W/m2 CLR
01:54 3.9 °F -0.3 °F 1014.8 in WSW 16.7 mph 16.7 mph 74 % 0.0 in 0.0 W/m2 CLR
01:59 3.9 °F -0.3 °F 1014.8 in West 19.3 mph 19.3 mph 74 % 0.0 in 0.0 W/m2 CLR
02:04 3.9 °F -0.3 °F 1014.8 in WNW 14.5 mph 14.5 mph 74 % 0.0 in 0.0 W/m2 CLR
02:09 3.3 °F -0.9 °F 1014.8 in WNW 18.5 mph 18.5 mph 74 % 0.0 in 0.0 W/m2 CLR
02:14 3.3 °F -0.9 °F 1014.8 in NNW 16.1 mph 16.1 mph 74 % 0.0 in 0.0 W/m2 CLR
02:19 3.3 °F -0.9 °F 1015.1 in NW 16.7 mph 16.7 mph 74 % 0.0 in 0.0 W/m2 CLR
02:24 3.3 °F -0.9 °F 1014.8 in WNW 14.8 mph 14.8 mph 74 % 0.0 in 0.0 W/m2 CLR
02:29 3.3 °F -0.9 °F 1015.1 in WNW 14.5 mph 14.5 mph 74 % 0.0 in 0.0 W/m2 CLR
02:34 3.3 °F -0.9 °F 1014.8 in NW 18.5 mph 18.5 mph 74 % 0.0 in 0.0 W/m2 CLR
02:44 3.3 °F -1.1 °F 1015.1 in WNW 16.7 mph 16.7 mph 73 % 0.0 in 0.0 W/m2 CLR
02:49 3.3 °F -1.1 °F 1015.1 in West 14.8 mph 14.8 mph 73 % 0.0 in 0.0 W/m2 CLR
02:54 3.3 °F -1.1 °F 1015.1 in WNW 13.0 mph 13.0 mph 73 % 0.0 in 0.0 W/m2 CLR
02:59 3.3 °F -1.1 °F 1015.1 in WNW 18.5 mph 18.5 mph 73 % 0.0 in 0.0 W/m2 CLR
03:04 2.8 °F -1.6 °F 1015.5 in WNW 18.5 mph 18.5 mph 73 % 0.0 in 0.0 W/m2 CLR
03:09 2.8 °F -1.6 °F 1015.5 in NW 19.3 mph 19.3 mph 73 % 0.0 in 0.0 W/m2 CLR
03:14 2.8 °F -1.6 °F 1015.1 in WNW 22.2 mph 22.2 mph 73 % 0.0 in 0.0 W/m2 CLR
03:19 2.8 °F -1.6 °F 1015.1 in NW 27.4 mph 27.4 mph 73 % 0.0 in 0.0 W/m2 CLR
03:24 2.8 °F -1.6 °F 1015.1 in NW 22.5 mph 22.5 mph 73 % 0.0 in 0.0 W/m2 CLR
03:29 3.3 °F -1.1 °F 1015.1 in NW 20.9 mph 20.9 mph 73 % 0.0 in 0.0 W/m2 CLR
03:34 3.3 °F -1.1 °F 1015.5 in NW 25.9 mph 25.9 mph 73 % 0.0 in 0.0 W/m2 CLR
03:39 3.3 °F -1.1 °F 1015.1 in NW 25.9 mph 25.9 mph 73 % 0.0 in 0.0 W/m2 CLR
03:44 3.3 °F -1.1 °F 1015.1 in WNW 25.9 mph 25.9 mph 73 % 0.0 in 0.0 W/m2 CLR
03:49 3.3 °F -1.1 °F 1015.1 in NW 24.1 mph 24.1 mph 73 % 0.0 in 0.0 W/m2 CLR
03:54 3.3 °F -1.1 °F 1015.5 in NW 24.1 mph 24.1 mph 73 % 0.0 in 0.0 W/m2 CLR
03:59 3.3 °F -1.2 °F 1015.8 in NW 17.7 mph 17.7 mph 72 % 0.0 in 0.0 W/m2 CLR
04:09 3.3 °F -1.1 °F 1015.8 in WNW 13.0 mph 13.0 mph 73 % 0.0 in 0.0 W/m2 CLR
04:14 2.8 °F -1.6 °F 1015.5 in NW 18.5 mph 18.5 mph 73 % 0.0 in 0.0 W/m2 CLR
04:19 2.8 °F -1.6 °F 1015.5 in WNW 17.7 mph 17.7 mph 73 % 0.0 in 0.0 W/m2 CLR
04:24 2.8 °F -1.6 °F 1015.5 in WNW 18.5 mph 18.5 mph 73 % 0.0 in 0.0 W/m2 CLR
04:34 2.8 °F -1.6 °F 1015.8 in WNW 13.0 mph 13.0 mph 73 % 0.0 in 0.0 W/m2 CLR
04:39 2.2 °F -2.1 °F 1015.8 in NW 18.5 mph 18.5 mph 73 % 0.0 in 0.0 W/m2 CLR
04:44 2.8 °F -1.6 °F 1015.5 in NW 14.8 mph 14.8 mph 73 % 0.0 in 0.0 W/m2 CLR
04:59 2.8 °F -1.6 °F 1015.8 in West 9.3 mph 9.3 mph 73 % 0.0 in 0.0 W/m2 CLR
05:09 2.8 °F -1.6 °F 1015.5 in West 9.3 mph 9.3 mph 73 % 0.0 in 0.0 W/m2 CLR
05:14 2.8 °F -1.6 °F 1015.8 in WNW 18.5 mph 18.5 mph 73 % 0.0 in 0.0 W/m2 CLR
05:19 2.8 °F -1.6 °F 1015.8 in NW 5.6 mph 5.6 mph 73 % 0.0 in 0.0 W/m2 CLR
05:24 2.2 °F -2.1 °F 1015.8 in West 5.6 mph 5.6 mph 73 % 0.0 in 0.0 W/m2 CLR
05:34 1.7 °F -2.5 °F 1015.8 in West 5.6 mph   74 % 0.0 in 0.0 W/m2 CLR
05:39 1.7 °F -2.5 °F 1015.8 in NW 5.6 mph 5.6 mph 74 % 0.0 in 0.0 W/m2 CLR
05:44 1.7 °F -2.5 °F 1015.8 in NW 4.8 mph 4.8 mph 74 % 0.0 in 0.0 W/m2 CLR
05:54 1.1 °F -2.7 °F 1016.1 in WNW 16.7 mph 16.7 mph 76 % 0.0 in 0.0 W/m2 CLR
05:59 1.7 °F -2.3 °F 1016.1 in WNW 18.5 mph 18.5 mph 75 % 0.0 in 0.0 W/m2 CLR
06:04 1.7 °F -2.3 °F 1015.8 in NW 18.5 mph 18.5 mph 75 % 0.0 in 0.0 W/m2 CLR
06:09 1.7 °F -2.3 °F 1015.8 in NW 22.5 mph 22.5 mph 75 % 0.0 in 0.0 W/m2 CLR
06:19 1.7 °F -2.3 °F 1016.1 in NW 18.5 mph 18.5 mph 75 % 0.0 in 0.0 W/m2 CLR
06:24 2.2 °F -1.8 °F 1016.1 in NW 16.7 mph 16.7 mph 75 % 0.0 in 0.0 W/m2 CLR
06:29 2.2 °F -1.8 °F 1016.1 in NW 14.8 mph 14.8 mph 75 % 0.0 in 0.0 W/m2 CLR
06:49 1.1 °F -2.8 °F 1016.5 in NNW 11.1 mph 11.1 mph 75 % 0.0 in 0.0 W/m2 CLR
06:55 1.1 °F -2.8 °F 1016.5 in NNW 5.6 mph 5.6 mph 75 % 0.0 in 0.0 W/m2 CLR
07:00 0.6 °F -3.2 °F 1016.5 in North 13.0 mph 13.0 mph 76 % 0.0 in 0.0 W/m2 CLR
07:05 0.6 °F -3.2 °F 1016.5 in North 1.6 mph 1.6 mph 76 % 0.0 in 0.0 W/m2 CLR
07:06 0.6 °F -3.2 °F 1016.5 in NNW 11.3 mph 11.3 mph 76 % 0.0 in 0.0 W/m2 CLR
07:11 0.0 °F -3.6 °F 1016.5 in Calm     77 % 0.0 in 0.0 W/m2 CLR
07:16 0.0 °F -3.6 °F 1016.5 in WNW 13.0 mph 13.0 mph 77 % 0.0 in 0.0 W/m2 CLR
07:21 0.0 °F -3.6 °F 1016.5 in WNW 5.6 mph 5.6 mph 77 % 0.0 in 0.0 W/m2 CLR
07:31 -0.6 °F -4.1 °F 1016.5 in WNW 5.6 mph 5.6 mph 77 % 0.0 in 0.0 W/m2 CLR
07:36 -1.1 °F -4.6 °F 1016.5 in WNW 9.3 mph 9.3 mph 77 % 0.0 in 0.0 W/m2 CLR
07:41 -1.1 °F -4.4 °F 1016.8 in WNW 13.0 mph 13.0 mph 78 % 0.0 in 0.0 W/m2 CLR
07:46 -1.7 °F -5.2 °F 1016.8 in West 14.8 mph 14.8 mph 77 % 0.0 in 0.0 W/m2 CLR
07:51 -1.7 °F -5.0 °F 1016.8 in WNW 14.8 mph 14.8 mph 78 % 0.0 in 0.0 W/m2 CLR
08:01 -1.7 °F -5.2 °F 1017.2 in WNW 18.5 mph 18.5 mph 77 % 0.0 in 0.0 W/m2 OVC
08:06 -1.1 °F -4.6 °F 1017.2 in NW 18.5 mph 18.5 mph 77 % 0.0 in 5.0 W/m2 OVC
08:11 -1.1 °F -4.4 °F 1017.2 in NW 18.5 mph 18.5 mph 78 % 0.0 in 7.0 W/m2 BKN
08:26 0.6 °F -3.0 °F 1017.5 in NW 22.2 mph 22.2 mph 77 % 0.0 in 14.0 W/m2 BKN
08:36 1.7 °F -1.9 °F 1017.5 in NNW 18.5 mph 18.5 mph 77 % 0.0 in 21.0 W/m2 BKN
08:46 1.7 °F -2.3 °F 1017.5 in NW 16.7 mph 16.7 mph 75 % 0.0 in 44.0 W/m2 BKN
08:56 2.2 °F -1.8 °F 1017.8 in NW 14.8 mph 14.8 mph 75 % 0.0 in 65.0 W/m2 SCT
09:01 2.2 °F -1.9 °F 1017.8 in WNW 16.7 mph 16.7 mph 74 % 0.0 in 79.0 W/m2 FEW
09:06 2.2 °F -1.9 °F 1017.8 in NW 13.0 mph 13.0 mph 74 % 0.0 in 90.0 W/m2 FEW
09:16 2.8 °F -1.6 °F 1018.2 in WNW 16.7 mph 16.7 mph 73 % 0.0 in 114.0 W/m2 CLR
09:21 2.8 °F -1.6 °F 1018.2 in NW 9.7 mph 9.7 mph 73 % 0.0 in 121.0 W/m2 CLR
09:26 3.3 °F -1.2 °F 1018.2 in NNW 14.8 mph 14.8 mph 72 % 0.0 in 146.0 W/m2 CLR
09:31 3.3 °F -1.4 °F 1018.2 in NW 9.3 mph 9.3 mph 71 % 0.0 in 162.0 W/m2 CLR
09:36 3.3 °F -1.4 °F 1018.5 in West 16.1 mph 16.1 mph 71 % 0.0 in 174.0 W/m2 CLR
09:46 3.9 °F -1.1 °F 1018.5 in NW 18.5 mph 18.5 mph 70 % 0.0 in 137.0 W/m2 CLR
10:01 4.4 °F -0.6 °F 1018.5 in NW 20.4 mph 20.4 mph 70 % 0.0 in 246.0 W/m2 CLR
10:11 4.4 °F -0.8 °F 1018.5 in NW 27.8 mph 27.8 mph 69 % 0.0 in 272.0 W/m2 CLR
10:16 4.4 °F -0.8 °F 1018.5 in NW 18.5 mph 18.5 mph 69 % 0.0 in 281.0 W/m2 CLR
10:26 5.0 °F -0.4 °F 1018.8 in NNW 22.2 mph 22.2 mph 68 % 0.0 in 302.0 W/m2 CLR
10:31 5.0 °F -0.6 °F 1018.8 in WNW 22.5 mph 22.5 mph 67 % 0.0 in 313.0 W/m2 CLR
10:41 5.6 °F -0.1 °F 1018.8 in NW 25.9 mph 25.9 mph 67 % 0.0 in 330.0 W/m2 CLR
10:51 5.6 °F -0.3 °F 1018.8 in NNW 11.1 mph 11.1 mph 66 % 0.0 in 350.0 W/m2 CLR
10:56 5.6 °F -0.5 °F 1019.2 in NW 24.1 mph 24.1 mph 65 % 0.0 in 359.0 W/m2 CLR
11:01 6.1 °F 0.0 °F 1019.2 in NNW 25.9 mph 25.9 mph 65 % 0.0 in 364.0 W/m2 CLR
11:06 6.1 °F -0.2 °F 1019.2 in North 13.0 mph 13.0 mph 64 % 0.0 in 376.0 W/m2 CLR
11:11 6.1 °F -0.6 °F 1019.2 in NNW 27.8 mph 27.8 mph 62 % 0.0 in 385.0 W/m2 CLR
11:27 6.7 °F -0.1 °F 1019.2 in NNW 30.6 mph 30.6 mph 62 % 0.0 in 406.0 W/m2 CLR
11:32 6.7 °F -0.3 °F 1019.2 in NNW 33.3 mph 33.3 mph 61 % 0.0 in 408.0 W/m2 CLR
11:37 6.7 °F -0.1 °F 1019.2 in North 22.5 mph 22.5 mph 62 % 0.0 in 413.0 W/m2 CLR
11:42 6.7 °F -0.6 °F 1019.2 in NNW 33.3 mph 33.3 mph 60 % 0.0 in 422.0 W/m2 CLR
11:47 7.2 °F 0.2 °F 1019.2 in NNW 31.5 mph 31.5 mph 61 % 0.0 in 424.0 W/m2 CLR
11:52 7.2 °F 0.2 °F 1018.8 in NW 31.5 mph 31.5 mph 61 % 0.0 in 443.0 W/m2 CLR
11:57 7.2 °F -0.1 °F 1018.8 in NW 25.9 mph 25.9 mph 60 % 0.0 in 439.0 W/m2 CLR
12:17 7.8 °F -0.2 °F 1018.8 in NW 35.2 mph 35.2 mph 57 % 0.0 in 448.0 W/m2 CLR
12:22 7.8 °F -0.4 °F 1018.5 in NW 33.3 mph 33.3 mph 56 % 0.0 in 448.0 W/m2 CLR
12:28 8.3 °F 0.1 °F 1018.5 in North 22.5 mph 22.5 mph 56 % 0.0 in 450.0 W/m2 CLR
12:38 8.3 °F 0.1 °F 1018.5 in North 35.2 mph 35.2 mph 56 % 0.0 in 452.0 W/m2 CLR
12:43 8.3 °F -0.2 °F 1018.5 in North 35.4 mph 35.4 mph 55 % 0.0 in 455.0 W/m2 CLR
12:48 8.3 °F -0.2 °F 1018.5 in NNW 37.0 mph 37.0 mph 55 % 0.0 in 454.0 W/m2 CLR
12:54 8.3 °F 0.1 °F 1018.5 in NNW 31.5 mph 31.5 mph 56 % 0.0 in 454.0 W/m2 CLR
13:04 8.9 °F 0.3 °F 1018.5 in North 27.4 mph 27.4 mph 55 % 0.0 in 454.0 W/m2 CLR
13:09 8.9 °F 0.1 °F 1018.5 in NNW 37.0 mph 37.0 mph 54 % 0.0 in 450.0 W/m2 CLR
13:14 8.9 °F 0.3 °F 1018.2 in NNW 27.8 mph 27.8 mph 55 % 0.0 in 452.0 W/m2 CLR
13:19 8.9 °F 0.1 °F 1018.2 in NNE 27.8 mph 27.8 mph 54 % 0.0 in 446.0 W/m2 CLR
13:44 8.9 °F -0.4 °F 1018.5 in NNW 33.3 mph 33.3 mph 52 % 0.0 in 431.0 W/m2 CLR
13:49 9.4 °F 0.3 °F 1018.5 in NNW 31.5 mph 31.5 mph 53 % 0.0 in 427.0 W/m2 CLR
13:54 9.4 °F 0.1 °F 1018.5 in NNW 25.9 mph 25.9 mph 52 % 0.0 in 422.0 W/m2 CLR
13:59 9.4 °F 0.1 °F 1018.2 in NNW 38.9 mph 38.9 mph 52 % 0.0 in 417.0 W/m2 CLR
14:19 10.0 °F 0.1 °F 1018.2 in North 37.0 mph 37.0 mph 50 % 0.0 in 394.0 W/m2 CLR
14:39 9.4 °F -0.2 °F 1018.2 in North 25.9 mph 25.9 mph 51 % 0.0 in 392.0 W/m2 CLR
14:44 10.0 °F 0.3 °F 1018.2 in North 37.0 mph 37.0 mph 51 % 0.0 in 367.0 W/m2 CLR
14:49 10.0 °F 0.1 °F 1018.2 in North 33.3 mph 33.3 mph 50 % 0.0 in 369.0 W/m2 CLR
15:00 9.4 °F -0.7 °F 1018.2 in NW 31.5 mph 31.5 mph 49 % 0.0 in 155.0 W/m2 CLR
15:05 8.9 °F -1.0 °F 1018.2 in NNW 27.8 mph 27.8 mph 50 % 0.0 in 47.0 W/m2 CLR
15:10 8.9 °F -0.7 °F 1017.8 in NNW 29.6 mph 29.6 mph 51 % 0.0 in 313.0 W/m2 SCT
15:30 10.0 °F -0.2 °F 1018.2 in NNW 33.3 mph 33.3 mph 49 % 0.0 in 269.0 W/m2 CLR
15:40 10.0 °F -0.5 °F 1018.2 in NW 31.5 mph 31.5 mph 48 % 0.0 in 241.0 W/m2 CLR
15:45 10.0 °F -0.5 °F 1018.2 in NNW 38.9 mph 38.9 mph 48 % 0.0 in 229.0 W/m2 CLR
16:05 8.9 °F -1.3 °F 1018.2 in North 35.2 mph 35.2 mph 49 % 0.0 in 169.0 W/m2 CLR
16:10 8.9 °F -1.3 °F 1018.5 in NNW 20.4 mph 20.4 mph 49 % 0.0 in 155.0 W/m2 CLR
16:20 8.9 °F -1.3 °F 1018.5 in NNW 31.5 mph 31.5 mph 49 % 0.0 in 127.0 W/m2 CLR
16:25 8.9 °F -1.0 °F 1018.5 in NNW 42.6 mph 42.6 mph 50 % 0.0 in 88.0 W/m2 CLR
16:30 8.3 °F -1.2 °F 1018.5 in NW 31.5 mph 31.5 mph 51 % 0.0 in 30.0 W/m2 FEW
16:35 8.3 °F -0.9 °F 1018.5 in NNW 37.0 mph 37.0 mph 52 % 0.0 in 86.0 W/m2 CLR
16:40 8.3 °F -0.7 °F 1018.8 in North 38.9 mph 38.9 mph 53 % 0.0 in 69.0 W/m2 FEW
16:45 8.3 °F -0.7 °F 1018.8 in North 37.0 mph 37.0 mph 53 % 0.0 in 54.0 W/m2 SCT
16:55 7.8 °F -1.2 °F 1018.8 in North 25.9 mph 25.9 mph 53 % 0.0 in 39.0 W/m2 BKN
17:00 7.8 °F -1.2 °F 1018.8 in North 27.8 mph 27.8 mph 53 % 0.0 in 30.0 W/m2 BKN
17:10 7.8 °F -0.9 °F 1018.8 in NW 22.5 mph 22.5 mph 54 % 0.0 in 14.0 W/m2 BKN
17:15 7.8 °F -0.7 °F 1019.2 in NNW 22.5 mph 22.5 mph 55 % 0.0 in 12.0 W/m2 BKN
17:25 7.2 °F -1.2 °F 1019.2 in NNW 27.8 mph 27.8 mph 55 % 0.0 in 7.0 W/m2 BKN
17:30 7.2 °F -1.0 °F 1019.2 in North 25.7 mph 25.7 mph 56 % 0.0 in 5.0 W/m2 OVC
17:45 7.2 °F -1.0 °F 1019.5 in NNW 18.5 mph 18.5 mph 56 % 0.0 in 0.0 W/m2 CLR
17:50 7.2 °F -1.0 °F 1019.5 in NNW 29.6 mph 29.6 mph 56 % 0.0 in 0.0 W/m2 CLR
17:55 6.7 °F -1.3 °F 1019.5 in NW 22.2 mph 22.2 mph 57 % 0.0 in 0.0 W/m2 CLR
18:00 6.7 °F -1.3 °F 1019.5 in NNW 19.3 mph 19.3 mph 57 % 0.0 in 0.0 W/m2 CLR
18:05 6.7 °F -1.3 °F 1019.9 in NNW 24.1 mph 24.1 mph 57 % 0.0 in 0.0 W/m2 CLR
18:15 6.1 °F -1.8 °F 1019.5 in NW 19.3 mph 19.3 mph 57 % 0.0 in 0.0 W/m2 CLR
18:20 6.1 °F -1.6 °F 1019.9 in NNW 22.5 mph 22.5 mph 58 % 0.0 in 0.0 W/m2 CLR
18:30 6.1 °F -1.6 °F 1019.9 in NW 16.7 mph 16.7 mph 58 % 0.0 in 0.0 W/m2 CLR
18:40 6.1 °F -1.3 °F 1019.9 in NW 16.7 mph 16.7 mph 59 % 0.0 in 0.0 W/m2 CLR
18:45 6.1 °F -1.3 °F 1019.9 in NNW 18.5 mph 18.5 mph 59 % 0.0 in 0.0 W/m2 CLR
18:50 6.1 °F -1.3 °F 1019.9 in NW 20.4 mph 20.4 mph 59 % 0.0 in 0.0 W/m2 CLR
19:00 6.1 °F -1.1 °F 1020.2 in NW 22.2 mph 22.2 mph 60 % 0.0 in 0.0 W/m2 CLR
19:05 5.6 °F -1.8 °F 1020.2 in NW 29.6 mph 29.6 mph 59 % 0.0 in 0.0 W/m2 CLR
19:10 5.6 °F -1.6 °F 1020.2 in NW 22.2 mph 22.2 mph 60 % 0.0 in 0.0 W/m2 CLR
19:15 5.6 °F -1.6 °F 1019.9 in NW 22.2 mph 22.2 mph 60 % 0.0 in 0.0 W/m2 CLR
19:20 5.6 °F -1.6 °F 1019.9 in NNW 20.4 mph 20.4 mph 60 % 0.0 in 0.0 W/m2 CLR
19:30 5.6 °F -1.4 °F 1019.9 in NW 24.1 mph 24.1 mph 61 % 0.0 in 0.0 W/m2 CLR
19:35 5.6 °F -1.4 °F 1019.9 in NNW 25.9 mph 25.9 mph 61 % 0.0 in 0.0 W/m2 CLR
19:45 5.6 °F -1.2 °F 1020.2 in NW 29.6 mph 29.6 mph 62 % 0.0 in 0.0 W/m2 CLR
19:46 5.6 °F -1.2 °F 1020.2 in NNW 29.6 mph 29.6 mph 62 % 0.0 in 0.0 W/m2 CLR
19:51 5.6 °F -0.9 °F 1019.9 in NNW 25.9 mph 25.9 mph 63 % 0.0 in 0.0 W/m2 CLR
19:56 5.6 °F -0.9 °F 1020.2 in NNW 25.9 mph 25.9 mph 63 % 0.0 in 0.0 W/m2 CLR
20:06 5.6 °F -0.9 °F 1020.2 in NW 25.9 mph 25.9 mph 63 % 0.0 in 0.0 W/m2 CLR
20:21 5.6 °F -0.7 °F 1020.2 in NW 27.4 mph 27.4 mph 64 % 0.0 in 0.0 W/m2 CLR
20:26 5.6 °F -0.7 °F 1020.2 in NW 27.8 mph 27.8 mph 64 % 0.0 in 0.0 W/m2 CLR
20:36 5.6 °F -0.7 °F 1020.5 in NW 22.2 mph 22.2 mph 64 % 0.0 in 0.0 W/m2 CLR
20:41 5.6 °F -0.5 °F 1020.5 in NNW 22.2 mph 22.2 mph 65 % 0.0 in 0.0 W/m2 CLR
20:46 5.0 °F -0.8 °F 1020.5 in NW 20.4 mph 20.4 mph 66 % 0.0 in 0.0 W/m2 CLR
20:51 5.0 °F -0.6 °F 1020.5 in NNW 25.9 mph 25.9 mph 67 % 0.0 in 0.0 W/m2 CLR
20:56 5.0 °F -0.6 °F 1020.5 in NW 25.9 mph 25.9 mph 67 % 0.0 in 0.0 W/m2 CLR
21:01 5.6 °F -0.1 °F 1020.5 in NW 31.5 mph 31.5 mph 67 % 0.0 in 0.0 W/m2 CLR
21:06 5.0 °F -0.4 °F 1020.5 in WNW 18.5 mph 18.5 mph 68 % 0.0 in 0.0 W/m2 CLR
21:11 5.0 °F -0.4 °F 1020.9 in NW 25.9 mph 25.9 mph 68 % 0.0 in 0.0 W/m2 CLR
21:16 5.0 °F -0.2 °F 1020.9 in NNW 22.5 mph 22.5 mph 69 % 0.0 in 0.0 W/m2 CLR
21:21 5.0 °F 0.0 °F 1020.9 in NW 18.5 mph 18.5 mph 70 % 0.0 in 0.0 W/m2 CLR
21:26 5.0 °F 0.0 °F 1020.9 in NW 25.9 mph 25.9 mph 70 % 0.0 in 0.0 W/m2 CLR
21:31 5.0 °F 0.0 °F 1020.9 in NNW 29.6 mph 29.6 mph 70 % 0.0 in 0.0 W/m2 CLR
21:36 5.0 °F 0.0 °F 1020.9 in NW 22.5 mph 22.5 mph 70 % 0.0 in 0.0 W/m2 CLR
21:41 5.0 °F 0.0 °F 1020.9 in NW 22.2 mph 22.2 mph 70 % 0.0 in 0.0 W/m2 CLR
21:46 5.0 °F 0.0 °F 1020.9 in NW 27.8 mph 27.8 mph 70 % 0.0 in 0.0 W/m2 CLR
21:56 5.0 °F 0.0 °F 1021.2 in NW 24.1 mph 24.1 mph 70 % 0.0 in 0.0 W/m2 CLR
22:06 5.0 °F 0.0 °F 1021.2 in NW 20.9 mph 20.9 mph 70 % 0.0 in 0.0 W/m2 CLR
22:11 5.0 °F 0.0 °F 1021.2 in NW 20.4 mph 20.4 mph 70 % 0.0 in 0.0 W/m2 CLR
22:16 5.0 °F 0.0 °F 1021.2 in WNW 18.5 mph 18.5 mph 70 % 0.0 in 0.0 W/m2 CLR
22:21 5.0 °F 0.0 °F 1021.2 in WNW 19.3 mph 19.3 mph 70 % 0.0 in 0.0 W/m2 CLR
22:26 5.0 °F 0.0 °F 1021.2 in NW 20.4 mph 20.4 mph 70 % 0.0 in 0.0 W/m2 CLR
22:31 5.0 °F 0.0 °F 1021.2 in WNW 14.8 mph 14.8 mph 70 % 0.0 in 0.0 W/m2 CLR
22:36 5.0 °F 0.0 °F 1021.2 in WNW 22.2 mph 22.2 mph 70 % 0.0 in 0.0 W/m2 CLR
22:56 4.4 °F -0.3 °F 1020.9 in NNW 18.5 mph 18.5 mph 71 % 0.0 in 0.0 W/m2 CLR
23:01 5.0 °F 0.2 °F 1020.9 in NNW 20.9 mph 20.9 mph 71 % 0.0 in 0.0 W/m2 CLR
23:06 5.0 °F 0.2 °F 1020.9 in NNW 25.9 mph 25.9 mph 71 % 0.0 in 0.0 W/m2 CLR
23:11 5.0 °F 0.2 °F 1020.9 in NW 22.2 mph 22.2 mph 71 % 0.0 in 0.0 W/m2 CLR
23:16 4.4 °F -0.3 °F 1020.9 in NW 20.4 mph 20.4 mph 71 % 0.0 in 0.0 W/m2 CLR
23:21 4.4 °F -0.3 °F 1020.9 in NW 22.2 mph 22.2 mph 71 % 0.0 in 0.0 W/m2 CLR
23:26 4.4 °F -0.3 °F 1020.9 in NW 18.5 mph 18.5 mph 71 % 0.0 in 0.0 W/m2 CLR
23:36 4.4 °F -0.3 °F 1020.5 in NW 16.7 mph 16.7 mph 71 % 0.0 in 0.0 W/m2 CLR
23:41 4.4 °F -0.3 °F 1020.5 in WNW 14.8 mph 14.8 mph 71 % 0.0 in 0.0 W/m2 CLR
23:46 4.4 °F -0.3 °F 1020.5 in WNW 13.0 mph 13.0 mph 71 % 0.0 in 0.0 W/m2 CLR
23:51 3.9 °F -1.1 °F 1020.5 in NW 14.8 mph 14.8 mph 70 % 0.0 in 0.0 W/m2 CLR
23:56 3.9 °F -1.1 °F 1020.5 in WNW 13.0 mph 13.0 mph 70 % 0.0 in 0.0 W/m2 CLR
Lo Temps de Massalio
Compliments of Weather Underground - 1 mb